createdAt,value
2019-03-25T00:00:17.359Z,22.87
2019-03-25T00:01:17.321Z,22.80
2019-03-25T00:02:17.280Z,22.76
2019-03-25T00:03:17.246Z,22.72
2019-03-25T00:04:17.197Z,22.63
2019-03-25T00:05:17.143Z,22.70
2019-03-25T00:06:17.085Z,22.69
2019-03-25T00:07:17.053Z,22.68
2019-03-25T00:08:17.006Z,22.51
2019-03-25T00:09:16.948Z,22.55
2019-03-25T00:10:16.902Z,22.53
2019-03-25T00:11:16.880Z,22.57
2019-03-25T00:12:16.832Z,22.55
2019-03-25T00:13:16.787Z,22.57
2019-03-25T00:14:16.728Z,22.68
2019-03-25T00:15:16.691Z,22.51
2019-03-25T00:16:16.642Z,22.66
2019-03-25T00:17:16.583Z,22.60
2019-03-25T00:18:16.538Z,22.59
2019-03-25T00:19:16.512Z,22.65
2019-03-25T00:20:16.461Z,22.55
2019-03-25T00:21:16.413Z,22.59
2019-03-25T00:22:16.355Z,22.60
2019-03-25T00:23:16.332Z,22.59
2019-03-25T00:24:16.272Z,22.68
2019-03-25T00:25:16.233Z,22.66
2019-03-25T00:26:16.198Z,22.68
2019-03-25T00:27:16.144Z,22.68
2019-03-25T00:28:16.094Z,22.69
2019-03-25T00:29:16.043Z,22.69
2019-03-25T00:30:16.011Z,22.53
2019-03-25T00:31:15.945Z,22.53
2019-03-25T00:32:15.906Z,22.51
2019-03-25T00:33:15.866Z,22.44
2019-03-25T00:34:15.820Z,22.29
2019-03-25T00:35:15.775Z,22.39
2019-03-25T00:36:15.729Z,22.26
2019-03-25T00:37:15.684Z,22.28
2019-03-25T00:38:15.638Z,22.29
2019-03-25T00:39:15.600Z,22.20
2019-03-25T00:40:15.554Z,22.28
2019-03-25T00:41:15.509Z,22.33
2019-03-25T00:42:15.462Z,22.39
2019-03-25T00:43:15.404Z,22.41
2019-03-25T00:44:15.363Z,22.43
2019-03-25T00:45:15.318Z,22.39
2019-03-25T00:46:15.281Z,22.45
2019-03-25T00:47:15.216Z,22.39
2019-03-25T00:48:15.168Z,22.43
2019-03-25T00:49:15.137Z,22.45
2019-03-25T00:50:15.097Z,22.45
2019-03-25T00:51:15.053Z,22.43
2019-03-25T00:52:14.992Z,22.33
2019-03-25T00:53:14.940Z,22.30
2019-03-25T00:54:14.904Z,22.29
2019-03-25T00:55:14.849Z,22.33
2019-03-25T00:56:14.807Z,22.23
2019-03-25T00:57:14.758Z,22.23
2019-03-25T00:58:14.731Z,22.11
2019-03-25T00:59:14.672Z,22.18
2019-03-25T01:00:14.620Z,22.08
2019-03-25T01:01:14.594Z,22.13
2019-03-25T01:02:14.528Z,22.11
2019-03-25T01:03:14.507Z,22.15
2019-03-25T01:04:14.456Z,22.11
2019-03-25T01:05:14.405Z,22.00
2019-03-25T01:06:14.358Z,22.08
2019-03-25T01:07:14.306Z,22.06
2019-03-25T01:08:14.274Z,22.02
2019-03-25T01:09:14.223Z,21.95
2019-03-25T01:10:14.162Z,22.06
2019-03-25T01:11:14.123Z,22.04
2019-03-25T01:12:14.083Z,22.06
2019-03-25T01:13:14.046Z,22.06
2019-03-25T01:14:13.978Z,22.02
2019-03-25T01:15:13.952Z,21.95
2019-03-25T01:16:13.899Z,21.99
2019-03-25T01:17:13.857Z,21.89
2019-03-25T01:18:17.118Z,22.00
2019-03-25T01:19:13.755Z,22.00
2019-03-25T01:20:13.754Z,22.00
2019-03-25T01:21:13.665Z,22.08
2019-03-25T01:22:13.613Z,22.06
2019-03-25T01:23:13.573Z,22.02
2019-03-25T01:24:13.520Z,22.07
2019-03-25T01:25:13.490Z,22.02
2019-03-25T01:26:13.448Z,22.02
2019-03-25T01:27:13.402Z,22.06
2019-03-25T01:28:13.336Z,22.02
2019-03-25T01:29:13.290Z,22.06
2019-03-25T01:30:13.244Z,22.08
2019-03-25T01:31:13.206Z,22.04
2019-03-25T01:32:13.160Z,21.98
2019-03-25T01:33:13.120Z,22.04
2019-03-25T01:34:13.073Z,22.02
2019-03-25T01:35:13.035Z,21.96
2019-03-25T01:36:12.977Z,21.95
2019-03-25T01:37:12.943Z,21.92
2019-03-25T01:38:12.890Z,21.93
2019-03-25T01:39:12.831Z,21.89
2019-03-25T01:40:12.795Z,21.89
2019-03-25T01:41:12.752Z,21.91
2019-03-25T01:42:12.708Z,21.95
2019-03-25T01:43:12.656Z,21.99
2019-03-25T01:44:12.609Z,22.07
2019-03-25T01:45:12.569Z,22.00
2019-03-25T01:46:12.521Z,22.04
2019-03-25T01:47:12.474Z,22.06
2019-03-25T01:48:12.421Z,21.98
2019-03-25T01:49:12.379Z,21.96
2019-03-25T01:50:12.340Z,22.04
2019-03-25T01:51:12.300Z,21.99
2019-03-25T01:52:12.257Z,22.02
2019-03-25T01:53:12.188Z,21.95
2019-03-25T01:54:12.155Z,21.99
2019-03-25T01:55:13.690Z,21.91
2019-03-25T01:56:12.063Z,21.93
2019-03-25T01:57:12.012Z,21.91
2019-03-25T01:58:11.961Z,21.92
2019-03-25T01:59:11.913Z,21.83
2019-03-25T02:00:11.868Z,21.85
2019-03-25T02:01:11.823Z,21.85
2019-03-25T02:02:11.790Z,21.76
2019-03-25T02:03:11.737Z,21.80
2019-03-25T02:04:11.683Z,21.69
2019-03-25T02:05:11.636Z,21.72
2019-03-25T02:06:11.599Z,21.69
2019-03-25T02:07:11.558Z,21.57
2019-03-25T02:08:11.563Z,21.66
2019-03-25T02:09:11.466Z,21.54
2019-03-25T02:10:11.420Z,21.60
2019-03-25T02:11:11.381Z,21.58
2019-03-25T02:12:11.330Z,21.57
2019-03-25T02:13:11.269Z,21.62
2019-03-25T02:14:11.223Z,21.60
2019-03-25T02:15:11.185Z,21.46
2019-03-25T02:16:11.134Z,21.58
2019-03-25T02:17:11.099Z,21.50
2019-03-25T02:18:11.059Z,21.54
2019-03-25T02:19:11.013Z,21.58
2019-03-25T02:20:10.973Z,21.61
2019-03-25T02:21:10.921Z,21.52
2019-03-25T02:22:10.855Z,21.54
2019-03-25T02:23:11.094Z,21.57
2019-03-25T02:24:10.765Z,21.58
2019-03-25T02:25:10.784Z,21.64
2019-03-25T02:26:10.692Z,21.58
2019-03-25T02:27:10.646Z,21.51
2019-03-25T02:28:10.593Z,21.57
2019-03-25T02:29:10.533Z,21.45
2019-03-25T02:30:10.488Z,21.64
2019-03-25T02:31:10.449Z,21.51
2019-03-25T02:32:10.397Z,21.51
2019-03-25T02:33:10.365Z,21.52
2019-03-25T02:34:10.317Z,21.52
2019-03-25T02:35:10.264Z,21.54
2019-03-25T02:36:10.224Z,21.57
2019-03-25T02:37:10.184Z,21.52
2019-03-25T02:38:10.132Z,21.64
2019-03-25T02:39:10.081Z,21.67
2019-03-25T02:40:10.047Z,21.79
2019-03-25T02:41:09.994Z,21.75
2019-03-25T02:42:09.958Z,21.76
2019-03-25T02:43:09.909Z,21.62
2019-03-25T02:44:09.842Z,21.58
2019-03-25T02:45:09.810Z,21.58
2019-03-25T02:46:09.753Z,21.55
2019-03-25T02:47:09.705Z,21.39
2019-03-25T02:48:09.672Z,21.46
2019-03-25T02:49:09.625Z,21.45
2019-03-25T02:50:09.568Z,21.33
2019-03-25T02:51:09.541Z,21.27
2019-03-25T02:52:09.487Z,21.30
2019-03-25T02:53:09.440Z,21.21
2019-03-25T02:54:09.407Z,21.21
2019-03-25T02:55:09.359Z,21.22
2019-03-25T02:56:09.309Z,21.20
2019-03-25T02:57:09.264Z,21.09
2019-03-25T02:58:09.200Z,21.14
2019-03-25T02:59:09.168Z,21.15
2019-03-25T03:00:09.106Z,21.17
2019-03-25T03:01:09.060Z,21.12
2019-03-25T03:02:09.013Z,21.18
2019-03-25T03:03:08.987Z,21.09
2019-03-25T03:04:08.922Z,21.05
2019-03-25T03:05:08.895Z,20.99
2019-03-25T03:06:08.841Z,21.05
2019-03-25T03:07:08.790Z,21.07
2019-03-25T03:08:08.737Z,21.09
2019-03-25T03:09:08.959Z,21.00
2019-03-25T03:10:08.657Z,20.93
2019-03-25T03:11:08.606Z,20.93
2019-03-25T03:12:08.564Z,21.02
2019-03-25T03:13:08.510Z,21.09
2019-03-25T03:14:08.462Z,21.06
2019-03-25T03:15:08.448Z,21.07
2019-03-25T03:16:08.386Z,21.03
2019-03-25T03:17:08.430Z,21.06
2019-03-25T03:18:08.283Z,21.05
2019-03-25T03:19:08.235Z,21.11
2019-03-25T03:20:08.190Z,21.09
2019-03-25T03:21:08.143Z,21.09
2019-03-25T03:22:08.088Z,21.20
2019-03-25T03:23:08.055Z,21.18
2019-03-25T03:24:07.997Z,21.12
2019-03-25T03:25:07.972Z,21.09
2019-03-25T03:26:07.917Z,21.09
2019-03-25T03:27:07.877Z,21.06
2019-03-25T03:28:07.810Z,21.05
2019-03-25T03:29:07.772Z,21.06
2019-03-25T03:30:07.735Z,20.96
2019-03-25T03:31:07.743Z,20.95
2019-03-25T03:32:07.626Z,20.90
2019-03-25T03:33:07.594Z,20.85
2019-03-25T03:34:07.534Z,20.85
2019-03-25T03:35:07.509Z,20.90
2019-03-25T03:36:07.447Z,20.93
2019-03-25T03:37:07.409Z,20.74
2019-03-25T03:38:07.369Z,20.81
2019-03-25T03:39:07.329Z,20.87
2019-03-25T03:40:07.288Z,20.84
2019-03-25T03:41:07.243Z,20.96
2019-03-25T03:42:07.177Z,20.97
2019-03-25T03:43:07.123Z,20.95
2019-03-25T03:44:07.078Z,20.95
2019-03-25T03:45:07.025Z,20.95
2019-03-25T03:46:06.989Z,20.95
2019-03-25T03:47:06.931Z,20.99
2019-03-25T03:48:06.847Z,20.93
2019-03-25T03:49:06.853Z,20.99
2019-03-25T03:50:06.796Z,21.02
2019-03-25T03:51:06.748Z,20.97
2019-03-25T03:52:06.725Z,21.07
2019-03-25T03:53:06.673Z,21.03
2019-03-25T03:54:06.634Z,21.06
2019-03-25T03:55:06.607Z,21.06
2019-03-25T03:56:13.555Z,20.96
2019-03-25T03:57:06.487Z,21.11
2019-03-25T03:58:06.427Z,21.11
2019-03-25T03:59:06.375Z,21.07
2019-03-25T04:00:06.337Z,21.07
2019-03-25T04:01:06.294Z,21.02
2019-03-25T04:02:06.247Z,21.06
2019-03-25T04:03:06.209Z,21.07
2019-03-25T04:04:06.163Z,21.11
2019-03-25T04:05:06.116Z,21.03
2019-03-25T04:06:06.080Z,21.02
2019-03-25T04:07:06.004Z,21.07
2019-03-25T04:08:05.978Z,20.93
2019-03-25T04:09:05.912Z,20.96
2019-03-25T04:10:05.889Z,20.99
2019-03-25T04:11:05.843Z,21.02
2019-03-25T04:12:05.779Z,20.97
2019-03-25T04:13:05.752Z,20.96
2019-03-25T04:14:05.681Z,21.06
2019-03-25T04:15:05.747Z,20.99
2019-03-25T04:16:05.598Z,20.97
2019-03-25T04:17:05.548Z,20.97
2019-03-25T04:18:05.505Z,21.03
2019-03-25T04:19:05.460Z,21.12
2019-03-25T04:20:05.413Z,21.14
2019-03-25T04:21:05.382Z,21.06
2019-03-25T04:22:05.328Z,21.06
2019-03-25T04:23:05.287Z,21.02
2019-03-25T04:24:05.223Z,20.95
2019-03-25T04:25:05.188Z,20.96
2019-03-25T04:26:05.130Z,20.92
2019-03-25T04:27:05.108Z,21.00
2019-03-25T04:28:05.052Z,20.99
2019-03-25T04:29:05.006Z,20.81
2019-03-25T04:30:04.936Z,20.81
2019-03-25T04:31:04.896Z,20.78
2019-03-25T04:32:06.311Z,20.84
2019-03-25T04:33:04.797Z,20.77
2019-03-25T04:34:04.772Z,20.69
2019-03-25T04:35:04.728Z,20.66
2019-03-25T04:36:04.673Z,20.66
2019-03-25T04:37:04.624Z,20.63
2019-03-25T04:38:04.574Z,20.60
2019-03-25T04:39:04.519Z,20.63
2019-03-25T04:40:04.483Z,20.63
2019-03-25T04:41:04.442Z,20.67
2019-03-25T04:42:04.395Z,20.66
2019-03-25T04:43:04.355Z,20.72
2019-03-25T04:44:04.288Z,20.75
2019-03-25T04:45:04.252Z,20.65
2019-03-25T04:46:04.213Z,20.65
2019-03-25T04:47:04.147Z,20.63
2019-03-25T04:48:04.108Z,20.65
2019-03-25T04:49:04.061Z,20.69
2019-03-25T04:50:04.024Z,20.60
2019-03-25T04:51:03.980Z,20.63
2019-03-25T04:52:03.915Z,20.67
2019-03-25T04:53:03.881Z,20.65
2019-03-25T04:54:03.843Z,20.59
2019-03-25T04:55:03.795Z,20.67
2019-03-25T04:56:03.749Z,20.62
2019-03-25T04:57:03.689Z,20.55
2019-03-25T04:58:03.648Z,20.56
2019-03-25T04:59:05.468Z,20.52
2019-03-25T05:00:03.563Z,20.56
2019-03-25T05:01:03.500Z,20.51
2019-03-25T05:02:03.449Z,20.55
2019-03-25T05:03:03.416Z,20.58
2019-03-25T05:04:03.384Z,20.56
2019-03-25T05:05:03.310Z,20.56
2019-03-25T05:06:03.285Z,20.44
2019-03-25T05:07:03.217Z,20.55
2019-03-25T05:08:03.190Z,20.48
2019-03-25T05:09:03.144Z,20.58
2019-03-25T05:10:03.076Z,20.47
2019-03-25T05:11:03.889Z,20.47
2019-03-25T05:12:03.005Z,20.52
2019-03-25T05:13:02.953Z,20.47
2019-03-25T05:14:02.905Z,20.56
2019-03-25T05:15:02.859Z,20.60
2019-03-25T05:16:02.815Z,20.56
2019-03-25T05:17:02.764Z,20.56
2019-03-25T05:18:02.740Z,20.43
2019-03-25T05:19:02.667Z,20.39
2019-03-25T05:20:02.625Z,20.47
2019-03-25T05:21:02.580Z,20.44
2019-03-25T05:22:02.527Z,20.55
2019-03-25T05:23:02.472Z,20.55
2019-03-25T05:24:02.434Z,20.56
2019-03-25T05:25:02.404Z,20.62
2019-03-25T05:26:02.333Z,20.65
2019-03-25T05:27:02.299Z,20.52
2019-03-25T05:28:02.260Z,20.51
2019-03-25T05:29:02.208Z,20.51
2019-03-25T05:30:02.155Z,20.43
2019-03-25T05:31:02.105Z,20.44
2019-03-25T05:32:02.074Z,20.44
2019-03-25T05:33:02.015Z,20.36
2019-03-25T05:34:01.960Z,20.48
2019-03-25T05:35:01.920Z,20.48
2019-03-25T05:36:01.928Z,20.28
2019-03-25T05:37:01.822Z,20.26
2019-03-25T05:38:01.788Z,20.16
2019-03-25T05:39:01.741Z,20.14
2019-03-25T05:40:01.690Z,20.22
2019-03-25T05:41:01.642Z,20.25
2019-03-25T05:42:01.596Z,20.32
2019-03-25T05:43:01.552Z,20.37
2019-03-25T05:44:01.516Z,20.43
2019-03-25T05:45:01.470Z,20.58
2019-03-25T05:46:01.416Z,20.52
2019-03-25T05:47:01.363Z,20.63
2019-03-25T05:48:01.309Z,20.56
2019-03-25T05:49:01.263Z,20.56
2019-03-25T05:50:01.230Z,20.51
2019-03-25T05:51:01.190Z,20.58
2019-03-25T05:52:01.148Z,20.47
2019-03-25T05:53:01.077Z,20.48
2019-03-25T05:54:01.037Z,20.40
2019-03-25T05:55:01.051Z,20.44
2019-03-25T05:56:00.938Z,20.41
2019-03-25T05:57:02.678Z,20.48
2019-03-25T05:58:00.851Z,20.59
2019-03-25T05:59:00.810Z,20.55
2019-03-25T06:00:00.771Z,20.59
2019-03-25T06:01:00.717Z,20.48
2019-03-25T06:02:00.658Z,20.43
2019-03-25T06:03:00.633Z,20.39
2019-03-25T06:04:00.563Z,20.36
2019-03-25T06:05:00.531Z,20.36
2019-03-25T06:06:00.472Z,20.25
2019-03-25T06:07:00.445Z,20.25
2019-03-25T06:08:00.380Z,20.29
2019-03-25T06:09:00.354Z,20.22
2019-03-25T06:10:00.413Z,20.25
2019-03-25T06:11:00.251Z,20.25
2019-03-25T06:12:00.203Z,20.22
2019-03-25T06:13:00.160Z,20.21
2019-03-25T06:14:00.121Z,20.34
2019-03-25T06:15:00.051Z,20.26
2019-03-25T06:16:00.018Z,20.22
2019-03-25T06:16:59.979Z,20.28
2019-03-25T06:17:59.925Z,20.28
2019-03-25T06:18:59.886Z,20.26
2019-03-25T06:19:59.826Z,20.29
2019-03-25T06:20:59.779Z,20.29
2019-03-25T06:21:59.728Z,20.37
2019-03-25T06:22:59.686Z,20.32
2019-03-25T06:23:59.653Z,20.36
2019-03-25T06:24:59.588Z,20.43
2019-03-25T06:25:59.539Z,20.31
2019-03-25T06:26:59.513Z,20.26
2019-03-25T06:27:59.465Z,20.40
2019-03-25T06:28:59.421Z,20.41
2019-03-25T06:29:59.367Z,20.43
2019-03-25T06:30:59.313Z,20.32
2019-03-25T06:31:59.279Z,20.29
2019-03-25T06:32:59.216Z,20.34
2019-03-25T06:33:59.180Z,20.39
2019-03-25T06:34:59.119Z,20.36
2019-03-25T06:35:59.085Z,20.28
2019-03-25T06:36:59.028Z,20.29
2019-03-25T06:37:58.987Z,20.18
2019-03-25T06:38:58.945Z,20.10
2019-03-25T06:39:58.898Z,20.13
2019-03-25T06:40:58.859Z,20.11
2019-03-25T06:41:58.812Z,20.13
2019-03-25T06:42:58.768Z,20.14
2019-03-25T06:43:58.706Z,20.19
2019-03-25T06:44:58.661Z,20.14
2019-03-25T06:45:58.606Z,20.14
2019-03-25T06:46:58.558Z,20.07
2019-03-25T06:47:58.512Z,20.09
2019-03-25T06:48:58.473Z,20.07
2019-03-25T06:49:58.431Z,20.07
2019-03-25T06:50:58.379Z,20.13
2019-03-25T06:51:58.346Z,20.03
2019-03-25T06:52:58.280Z,20.04
2019-03-25T06:53:58.239Z,20.07
2019-03-25T06:54:58.205Z,19.99
2019-03-25T06:55:58.139Z,20.09
2019-03-25T06:56:58.104Z,20.09
2019-03-25T06:57:58.044Z,20.07
2019-03-25T06:58:58.005Z,20.03
2019-03-25T06:59:57.951Z,20.09
2019-03-25T07:00:57.904Z,20.09
2019-03-25T07:01:57.858Z,20.11
2019-03-25T07:02:57.832Z,20.14
2019-03-25T07:03:57.776Z,20.10
2019-03-25T07:04:57.730Z,20.14
2019-03-25T07:05:57.671Z,20.07
2019-03-25T07:06:57.624Z,20.06
2019-03-25T07:07:57.589Z,20.14
2019-03-25T07:08:57.540Z,20.06
2019-03-25T07:09:57.482Z,19.96
2019-03-25T07:10:57.437Z,20.07
2019-03-25T07:11:57.410Z,20.00
2019-03-25T07:12:57.356Z,20.04
2019-03-25T07:13:57.309Z,20.00
2019-03-25T07:14:57.271Z,20.03
2019-03-25T07:15:57.216Z,19.94
2019-03-25T07:16:57.156Z,20.02
2019-03-25T07:17:57.109Z,20.00
2019-03-25T07:18:57.070Z,20.00
2019-03-25T07:19:57.028Z,20.02
2019-03-25T07:20:57.006Z,20.07
2019-03-25T07:21:56.942Z,20.06
2019-03-25T07:22:56.885Z,20.09
2019-03-25T07:23:56.836Z,20.04
2019-03-25T07:24:56.789Z,20.06
2019-03-25T07:25:56.747Z,20.03
2019-03-25T07:26:56.703Z,19.91
2019-03-25T07:27:56.654Z,19.94
2019-03-25T07:28:56.606Z,19.95
2019-03-25T07:29:56.555Z,19.95
2019-03-25T07:30:56.524Z,20.00
2019-03-25T07:31:56.466Z,19.92
2019-03-25T07:32:56.420Z,19.99
2019-03-25T07:33:56.373Z,20.03
2019-03-25T07:34:56.336Z,20.06
2019-03-25T07:35:56.267Z,20.02
2019-03-25T07:36:56.240Z,20.00
2019-03-25T07:37:56.185Z,20.10
2019-03-25T07:38:56.126Z,20.10
2019-03-25T07:39:56.079Z,20.18
2019-03-25T07:40:56.052Z,20.10
2019-03-25T07:41:55.985Z,20.07
2019-03-25T07:42:55.938Z,20.19
2019-03-25T07:43:55.912Z,20.10
2019-03-25T07:44:55.854Z,20.04
2019-03-25T07:45:55.798Z,20.13
2019-03-25T07:46:55.773Z,20.19
2019-03-25T07:47:55.712Z,20.16
2019-03-25T07:48:55.662Z,20.21
2019-03-25T07:49:55.611Z,20.18
2019-03-25T07:50:55.571Z,20.16
2019-03-25T07:51:55.524Z,20.14
2019-03-25T07:52:55.483Z,20.09
2019-03-25T07:53:55.442Z,20.03
2019-03-25T07:54:55.397Z,20.06
2019-03-25T07:55:55.335Z,19.94
2019-03-25T07:56:55.302Z,19.96
2019-03-25T07:57:55.258Z,20.00
2019-03-25T07:58:55.216Z,20.06
2019-03-25T07:59:55.145Z,20.06
2019-03-25T08:00:55.105Z,20.09
2019-03-25T08:01:55.080Z,20.10
2019-03-25T08:02:55.042Z,20.19
2019-03-25T08:03:54.987Z,20.16
2019-03-25T08:04:54.939Z,20.19
2019-03-25T08:05:54.869Z,20.16
2019-03-25T08:06:54.852Z,20.04
2019-03-25T08:07:54.901Z,20.09
2019-03-25T08:09:03.404Z,19.94
2019-03-25T08:09:54.682Z,20.03
2019-03-25T08:10:54.663Z,20.09
2019-03-25T08:11:54.588Z,20.00
2019-03-25T08:12:54.605Z,19.84
2019-03-25T08:13:54.522Z,19.86
2019-03-25T08:14:54.471Z,19.86
2019-03-25T08:15:54.412Z,19.77
2019-03-25T08:16:54.359Z,19.85
2019-03-25T08:17:54.319Z,19.85
2019-03-25T08:18:54.261Z,19.86
2019-03-25T08:19:54.218Z,19.69
2019-03-25T08:20:54.173Z,19.77
2019-03-25T08:21:54.132Z,19.70
2019-03-25T08:22:54.078Z,19.82
2019-03-25T08:23:54.017Z,19.74
2019-03-25T08:24:54.124Z,19.77
2019-03-25T08:25:53.930Z,19.64
2019-03-25T08:26:53.898Z,19.70
2019-03-25T08:27:59.831Z,19.73
2019-03-25T08:28:53.803Z,19.67
2019-03-25T08:29:53.750Z,19.69
2019-03-25T08:30:53.689Z,19.81
2019-03-25T08:31:53.649Z,19.81
2019-03-25T08:32:53.603Z,19.91
2019-03-25T08:33:53.556Z,19.92
2019-03-25T08:34:53.520Z,19.77
2019-03-25T08:35:53.467Z,19.81
2019-03-25T08:36:53.428Z,19.86
2019-03-25T08:37:53.359Z,19.81
2019-03-25T08:38:53.321Z,19.73
2019-03-25T08:39:53.275Z,19.74
2019-03-25T08:40:53.219Z,19.76
2019-03-25T08:41:53.172Z,19.82
2019-03-25T08:42:53.139Z,19.94
2019-03-25T08:43:53.082Z,19.82
2019-03-25T08:44:53.056Z,19.74
2019-03-25T08:45:52.998Z,19.67
2019-03-25T08:46:52.947Z,19.63
2019-03-25T08:47:52.901Z,19.62
2019-03-25T08:48:52.844Z,19.59
2019-03-25T08:49:52.811Z,19.58
2019-03-25T08:50:52.751Z,19.64
2019-03-25T08:51:52.766Z,19.67
2019-03-25T08:52:52.664Z,19.64
2019-03-25T08:53:52.617Z,19.67
2019-03-25T08:54:52.578Z,19.59
2019-03-25T08:55:52.538Z,19.64
2019-03-25T08:56:52.483Z,19.64
2019-03-25T08:57:52.435Z,19.66
2019-03-25T08:58:52.395Z,19.66
2019-03-25T08:59:52.336Z,19.67
2019-03-25T09:00:52.301Z,19.62
2019-03-25T09:01:52.260Z,19.64
2019-03-25T09:02:52.208Z,19.66
2019-03-25T09:03:52.153Z,19.47
2019-03-25T09:04:52.114Z,19.41
2019-03-25T09:05:52.054Z,19.44
2019-03-25T09:06:52.009Z,19.39
2019-03-25T09:07:51.960Z,19.44
2019-03-25T09:08:51.922Z,19.51
2019-03-25T09:09:51.879Z,19.59
2019-03-25T09:10:51.832Z,19.59
2019-03-25T09:11:51.948Z,19.66
2019-03-25T09:12:51.718Z,19.64
2019-03-25T09:13:51.693Z,19.76
2019-03-25T09:14:51.637Z,19.69
2019-03-25T09:15:51.623Z,19.66
2019-03-25T09:16:51.539Z,19.63
2019-03-25T09:17:51.483Z,19.59
2019-03-25T09:18:51.436Z,19.63
2019-03-25T09:19:51.434Z,19.48
2019-03-25T09:20:51.351Z,19.48
2019-03-25T09:21:51.302Z,19.52
2019-03-25T09:22:51.256Z,19.56
2019-03-25T09:23:51.209Z,19.52
2019-03-25T09:24:51.177Z,19.58
2019-03-25T09:25:51.119Z,19.63
2019-03-25T09:26:51.069Z,19.47
2019-03-25T09:27:51.034Z,19.54
2019-03-25T09:28:50.967Z,19.58
2019-03-25T09:29:50.930Z,19.59
2019-03-25T09:30:50.894Z,19.58
2019-03-25T09:31:50.838Z,19.49
2019-03-25T09:32:50.799Z,19.59
2019-03-25T09:33:50.745Z,19.66
2019-03-25T09:34:50.686Z,19.70
2019-03-25T09:35:50.698Z,19.70
2019-03-25T09:36:50.599Z,19.64
2019-03-25T09:37:52.723Z,19.74
2019-03-25T09:38:50.511Z,19.77
2019-03-25T09:39:50.452Z,19.71
2019-03-25T09:40:50.414Z,19.86
2019-03-25T09:41:50.371Z,19.88
2019-03-25T09:42:50.324Z,19.95
2019-03-25T09:43:50.272Z,20.04
2019-03-25T09:44:50.217Z,20.22
2019-03-25T09:45:50.187Z,20.41
2019-03-25T09:46:50.147Z,20.60
2019-03-25T09:47:50.077Z,20.75
2019-03-25T09:48:50.038Z,20.95
2019-03-25T09:49:50.001Z,21.40
2019-03-25T09:50:49.937Z,21.72
2019-03-25T09:51:49.892Z,22.10
2019-03-25T09:52:49.848Z,22.26
2019-03-25T09:53:49.800Z,22.32
2019-03-25T09:54:49.775Z,22.29
2019-03-25T09:55:49.721Z,22.32
2019-03-25T09:56:49.661Z,22.26
2019-03-25T09:57:49.628Z,21.99
2019-03-25T09:58:49.569Z,21.95
2019-03-25T09:59:49.551Z,21.75
2019-03-25T10:00:52.019Z,21.61
2019-03-25T10:01:49.453Z,21.55
2019-03-25T10:02:49.394Z,21.62
2019-03-25T10:03:49.354Z,21.55
2019-03-25T10:04:49.316Z,21.58
2019-03-25T10:05:49.271Z,21.52
2019-03-25T10:06:49.212Z,21.67
2019-03-25T10:07:49.170Z,21.62
2019-03-25T10:08:49.116Z,21.67
2019-03-25T10:09:49.068Z,21.48
2019-03-25T10:10:49.030Z,21.48
2019-03-25T10:11:48.997Z,21.46
2019-03-25T10:12:48.930Z,21.50
2019-03-25T10:13:48.884Z,21.46
2019-03-25T10:14:48.853Z,21.58
2019-03-25T10:15:48.800Z,21.55
2019-03-25T10:16:48.748Z,21.61
2019-03-25T10:17:48.716Z,21.46
2019-03-25T10:18:48.674Z,21.57
2019-03-25T10:19:48.615Z,21.60
2019-03-25T10:20:48.586Z,21.73
2019-03-25T10:21:48.535Z,21.82
2019-03-25T10:22:48.488Z,21.85
2019-03-25T10:23:48.604Z,21.89
2019-03-25T10:24:48.387Z,22.04
2019-03-25T10:25:48.341Z,22.43
2019-03-25T10:26:48.315Z,22.94
2019-03-25T10:27:48.271Z,23.62
2019-03-25T10:28:49.226Z,24.57
2019-03-25T10:29:48.179Z,25.59
2019-03-25T10:30:48.121Z,26.38
2019-03-25T10:31:48.075Z,27.35
2019-03-25T10:32:48.037Z,28.29
2019-03-25T10:33:48.004Z,28.98
2019-03-25T10:34:47.959Z,29.73
2019-03-25T10:35:47.921Z,30.16
2019-03-25T10:36:47.862Z,30.72
2019-03-25T10:37:47.827Z,31.37
2019-03-25T10:38:47.795Z,31.46
2019-03-25T10:39:47.759Z,31.64
2019-03-25T10:40:47.715Z,31.80
2019-03-25T10:41:47.663Z,32.15
2019-03-25T10:42:47.664Z,32.51
2019-03-25T10:43:47.592Z,32.82
2019-03-25T10:44:47.561Z,33.14
2019-03-25T10:45:47.512Z,33.14
2019-03-25T10:46:47.479Z,33.30
2019-03-25T10:47:47.452Z,33.34
2019-03-25T10:48:47.413Z,33.57
2019-03-25T10:49:47.365Z,33.96
2019-03-25T10:50:47.330Z,34.29
2019-03-25T10:51:47.308Z,34.54
2019-03-25T10:52:47.268Z,34.83
2019-03-25T10:53:47.240Z,34.48
2019-03-25T10:54:47.351Z,34.17
2019-03-25T10:55:47.174Z,33.92
2019-03-25T10:56:49.333Z,33.69
2019-03-25T10:57:47.083Z,33.50
2019-03-25T10:58:47.066Z,33.65
2019-03-25T10:59:47.025Z,34.02
2019-03-25T11:00:47.005Z,33.64
2019-03-25T11:01:46.954Z,33.46
2019-03-25T11:02:46.929Z,33.23
2019-03-25T11:03:46.885Z,32.80
2019-03-25T11:04:46.860Z,32.77
2019-03-25T11:05:46.832Z,32.74
2019-03-25T11:06:46.794Z,32.65
2019-03-25T11:07:46.766Z,32.64
2019-03-25T11:08:46.731Z,32.74
2019-03-25T11:09:46.692Z,32.49
2019-03-25T11:10:46.656Z,32.49
2019-03-25T11:11:46.625Z,32.16
2019-03-25T11:12:46.601Z,31.44
2019-03-25T11:13:46.556Z,30.03
2019-03-25T11:14:46.512Z,29.26
2019-03-25T11:15:46.491Z,28.69
2019-03-25T11:16:46.437Z,28.10
2019-03-25T11:17:46.394Z,27.70
2019-03-25T11:18:46.370Z,27.07
2019-03-25T11:19:46.319Z,26.60
2019-03-25T11:20:46.307Z,26.44
2019-03-25T11:21:46.237Z,26.16
2019-03-25T11:22:46.212Z,26.03
2019-03-25T11:23:46.165Z,26.02
2019-03-25T11:24:46.121Z,26.07
2019-03-25T11:25:46.097Z,26.03
2019-03-25T11:26:46.048Z,25.93
2019-03-25T11:27:54.020Z,25.84
2019-03-25T11:28:45.968Z,25.78
2019-03-25T11:29:45.911Z,25.68
2019-03-25T11:30:45.877Z,25.73
2019-03-25T11:31:45.828Z,25.75
2019-03-25T11:32:45.801Z,25.93
2019-03-25T11:33:45.744Z,25.91
2019-03-25T11:34:45.702Z,26.03
2019-03-25T11:35:45.672Z,26.06
2019-03-25T11:36:45.634Z,26.05
2019-03-25T11:37:45.584Z,26.07
2019-03-25T11:38:45.559Z,26.05
2019-03-25T11:39:45.509Z,26.02
2019-03-25T11:40:45.458Z,25.98
2019-03-25T11:41:45.419Z,25.98
2019-03-25T11:42:45.373Z,26.03
2019-03-25T11:43:45.343Z,26.02
2019-03-25T11:44:45.277Z,25.90
2019-03-25T11:45:45.254Z,25.91
2019-03-25T11:46:45.190Z,25.85
2019-03-25T11:47:45.160Z,25.87
2019-03-25T11:48:45.116Z,25.87
2019-03-25T11:49:45.062Z,25.88
2019-03-25T11:50:45.035Z,25.98
2019-03-25T11:51:44.995Z,26.07
2019-03-25T11:52:44.940Z,26.16
2019-03-25T11:53:44.900Z,26.28
2019-03-25T11:54:44.878Z,26.33
2019-03-25T11:55:44.810Z,26.23
2019-03-25T11:56:44.779Z,26.26
2019-03-25T11:57:44.714Z,26.36
2019-03-25T11:58:44.689Z,26.29
2019-03-25T11:59:44.635Z,26.51
2019-03-25T12:00:44.594Z,26.59
2019-03-25T12:01:44.567Z,26.58
2019-03-25T12:02:44.517Z,26.68
2019-03-25T12:03:44.461Z,26.89
2019-03-25T12:04:44.414Z,26.85
2019-03-25T12:05:44.369Z,26.80
2019-03-25T12:06:44.323Z,26.78
2019-03-25T12:07:44.299Z,26.80
2019-03-25T12:08:44.250Z,26.96
2019-03-25T12:09:44.192Z,26.90
2019-03-25T12:10:44.156Z,26.88
2019-03-25T12:11:44.120Z,26.92
2019-03-25T12:12:44.070Z,26.70
2019-03-25T12:13:44.027Z,26.58
2019-03-25T12:14:43.999Z,26.62
2019-03-25T12:15:43.953Z,26.70
2019-03-25T12:16:43.901Z,26.88
2019-03-25T12:17:43.866Z,26.83
2019-03-25T12:18:43.822Z,26.85
2019-03-25T12:19:43.783Z,26.65
2019-03-25T12:20:43.728Z,26.59
2019-03-25T12:21:43.683Z,26.53
2019-03-25T12:22:43.635Z,26.56
2019-03-25T12:23:43.586Z,26.65
2019-03-25T12:24:43.548Z,26.83
2019-03-25T12:25:43.519Z,26.99
2019-03-25T12:26:43.457Z,27.10
2019-03-25T12:27:43.414Z,27.07
2019-03-25T12:28:43.387Z,27.15
2019-03-25T12:29:43.323Z,27.35
2019-03-25T12:30:43.292Z,27.30
2019-03-25T12:31:43.249Z,27.27
2019-03-25T12:32:43.200Z,27.20
2019-03-25T12:33:43.157Z,27.32
2019-03-25T12:34:43.121Z,27.40
2019-03-25T12:35:43.087Z,27.45
2019-03-25T12:36:43.018Z,27.48
2019-03-25T12:37:42.988Z,27.48
2019-03-25T12:38:42.933Z,27.54
2019-03-25T12:39:42.902Z,27.51
2019-03-25T12:40:42.851Z,27.51
2019-03-25T12:41:42.815Z,27.49
2019-03-25T12:42:42.787Z,27.58
2019-03-25T12:43:42.721Z,27.58
2019-03-25T12:44:42.683Z,27.49
2019-03-25T12:45:42.629Z,27.48
2019-03-25T12:46:42.585Z,27.65
2019-03-25T12:47:42.557Z,27.63
2019-03-25T12:48:42.501Z,27.58
2019-03-25T12:49:42.465Z,27.74
2019-03-25T12:50:42.431Z,27.82
2019-03-25T12:51:42.388Z,27.87